createdAt,value
2017-09-25T00:01:42.363Z,30.47
2017-09-25T00:04:12.152Z,26.60
2017-09-25T00:06:41.211Z,32.57
2017-09-25T00:09:11.771Z,29.03
2017-09-25T00:11:40.827Z,33.00
2017-09-25T00:14:09.883Z,35.50
2017-09-25T00:16:38.494Z,36.33
2017-09-25T00:19:08.287Z,33.47
2017-09-25T00:21:36.574Z,33.00
2017-09-25T00:24:06.269Z,31.83
2017-09-25T00:26:34.836Z,34.10
2017-09-25T00:29:03.129Z,34.77
2017-09-25T00:31:31.731Z,32.47
2017-09-25T00:34:00.792Z,32.77
2017-09-25T00:36:29.079Z,32.33
2017-09-25T00:38:57.419Z,35.10
2017-09-25T00:41:26.488Z,32.43
2017-09-25T00:43:56.287Z,32.03
2017-09-25T00:46:24.619Z,34.70
2017-09-25T00:48:52.914Z,29.20
2017-09-25T00:51:22.335Z,37.50
2017-09-25T00:54:00.117Z,35.07
2017-09-25T00:56:29.758Z,35.40
2017-09-25T00:58:59.053Z,33.67
2017-09-25T01:01:39.238Z,34.80
2017-09-25T01:04:19.173Z,33.13
2017-09-25T01:06:47.927Z,31.87
2017-09-25T01:09:16.982Z,34.87
2017-09-25T01:11:45.271Z,35.23
2017-09-25T01:14:15.132Z,35.20
2017-09-25T01:16:43.420Z,32.97
2017-09-25T01:19:13.222Z,36.93
2017-09-25T01:21:42.335Z,36.60
2017-09-25T01:24:12.128Z,33.03
2017-09-25T01:26:40.424Z,32.27
2017-09-25T01:29:08.754Z,33.87
2017-09-25T01:31:37.043Z,36.17
2017-09-25T01:34:06.485Z,35.43
2017-09-25T01:36:36.183Z,31.93
2017-09-25T01:39:05.697Z,34.13
2017-09-25T01:41:33.859Z,33.43
2017-09-25T01:44:02.204Z,35.40
2017-09-25T01:46:30.501Z,34.97
2017-09-25T01:48:58.795Z,35.17
2017-09-25T01:51:27.941Z,40.10
2017-09-25T01:53:56.230Z,36.63
2017-09-25T01:56:24.522Z,37.03
2017-09-25T01:58:53.141Z,37.20
2017-09-25T02:01:21.436Z,39.77
2017-09-25T02:03:50.487Z,39.37
2017-09-25T02:06:19.947Z,33.97
2017-09-25T02:08:48.243Z,40.77
2017-09-25T02:11:16.542Z,38.07
2017-09-25T02:13:47.048Z,35.77
2017-09-25T02:16:16.695Z,37.60
2017-09-25T02:18:44.863Z,36.97
2017-09-25T02:24:08.051Z,37.47
2017-09-25T02:26:36.342Z,38.40
2017-09-25T02:29:04.644Z,34.97
2017-09-25T02:31:33.347Z,39.40
2017-09-25T02:34:02.777Z,38.70
2017-09-25T02:36:31.059Z,38.70
2017-09-25T02:38:59.396Z,39.10
2017-09-25T02:41:28.828Z,43.97
2017-09-25T02:43:57.467Z,37.80
2017-09-25T02:46:26.195Z,42.63
2017-09-25T02:48:55.256Z,42.20
2017-09-25T02:51:24.310Z,40.73
2017-09-25T02:53:53.012Z,39.63
2017-09-25T02:56:22.066Z,40.43
2017-09-25T02:58:50.354Z,39.17
2017-09-25T03:01:19.843Z,38.57
2017-09-25T03:03:49.491Z,38.83
2017-09-25T03:06:19.187Z,37.90
2017-09-25T03:08:48.282Z,38.27
2017-09-25T03:11:16.571Z,40.67
2017-09-25T03:13:45.659Z,39.53
2017-09-25T03:16:14.387Z,40.37
2017-09-25T03:18:42.670Z,41.67
2017-09-25T03:21:10.995Z,42.60
2017-09-25T03:23:39.321Z,39.20
2017-09-25T03:26:09.120Z,38.13
2017-09-25T03:28:37.443Z,40.30
2017-09-25T03:31:05.768Z,35.80
2017-09-25T03:33:34.066Z,38.00
2017-09-25T03:36:02.406Z,40.90
2017-09-25T03:38:32.047Z,37.83
2017-09-25T03:41:00.599Z,37.80
2017-09-25T03:43:28.971Z,40.27
2017-09-25T03:45:57.648Z,42.53
2017-09-25T03:48:26.697Z,36.90
2017-09-25T03:50:55.043Z,42.43
2017-09-25T03:53:24.101Z,40.80
2017-09-25T03:55:52.392Z,48.80
2017-09-25T03:58:21.009Z,43.60
2017-09-25T04:00:50.431Z,45.13
2017-09-25T04:03:18.722Z,47.33
2017-09-25T04:05:47.042Z,49.20
2017-09-25T04:08:15.331Z,47.87
2017-09-25T04:10:43.619Z,47.10
2017-09-25T04:13:13.320Z,46.07
2017-09-25T04:15:41.483Z,46.50
2017-09-25T04:18:09.774Z,48.30
2017-09-25T04:20:38.108Z,49.33
2017-09-25T04:23:07.738Z,48.53
2017-09-25T04:25:36.306Z,42.97
2017-09-25T04:28:04.639Z,45.93
2017-09-25T04:30:33.691Z,45.57
2017-09-25T04:33:01.978Z,46.07
2017-09-25T04:35:31.663Z,40.13
2017-09-25T04:37:59.822Z,43.13
2017-09-25T04:40:28.115Z,44.07
2017-09-25T04:42:56.440Z,38.63
2017-09-25T04:45:24.740Z,37.60
2017-09-25T04:47:53.027Z,35.90
2017-09-25T04:50:21.381Z,38.83
2017-09-25T04:52:49.667Z,41.53
2017-09-25T04:55:17.957Z,37.10
2017-09-25T04:57:46.290Z,34.20
2017-09-25T05:00:15.719Z,35.20
2017-09-25T05:02:44.771Z,32.40
2017-09-25T05:05:13.111Z,33.67
2017-09-25T05:07:41.403Z,34.30
2017-09-25T05:10:09.688Z,35.73
2017-09-25T05:12:38.787Z,32.33
2017-09-25T05:15:10.258Z,32.57
2017-09-25T05:17:39.942Z,32.90
2017-09-25T05:20:08.111Z,31.63
2017-09-25T05:22:36.412Z,29.63
2017-09-25T05:25:06.257Z,32.33
2017-09-25T05:27:34.541Z,37.43
2017-09-25T05:30:02.832Z,31.47
2017-09-25T05:32:33.048Z,27.87
2017-09-25T05:35:02.836Z,30.50
2017-09-25T05:37:31.887Z,31.40
2017-09-25T05:40:01.372Z,30.97
2017-09-25T05:42:30.055Z,35.50
2017-09-25T05:44:58.351Z,30.10
2017-09-25T05:47:28.206Z,29.63
2017-09-25T05:49:56.499Z,32.07
2017-09-25T05:52:25.545Z,35.73
2017-09-25T05:54:53.894Z,37.70
2017-09-25T05:57:23.534Z,41.23
2017-09-25T05:59:52.098Z,37.60
2017-09-25T06:02:21.947Z,36.93
2017-09-25T06:04:50.243Z,35.60
2017-09-25T06:07:18.527Z,33.47
2017-09-25T06:09:48.370Z,30.70
2017-09-25T06:12:17.468Z,33.00
2017-09-25T06:14:46.529Z,34.40
2017-09-25T06:17:14.867Z,31.40
2017-09-25T06:19:43.146Z,34.57
2017-09-25T06:22:11.448Z,35.53
2017-09-25T06:24:39.807Z,37.10
2017-09-25T06:27:08.090Z,41.80
2017-09-25T06:29:37.903Z,40.23
2017-09-25T06:32:07.594Z,40.50
2017-09-25T06:34:36.538Z,39.33
2017-09-25T06:37:06.171Z,40.47
2017-09-25T06:39:35.527Z,43.13
2017-09-25T06:42:03.811Z,39.60
2017-09-25T06:44:32.111Z,41.50
2017-09-25T06:47:00.439Z,36.70
2017-09-25T06:49:28.722Z,38.83
2017-09-25T06:51:57.015Z,41.07
2017-09-25T06:54:25.617Z,40.63
2017-09-25T06:56:54.667Z,34.43
2017-09-25T06:59:23.399Z,34.97
2017-09-25T07:01:53.271Z,38.27
2017-09-25T07:04:23.068Z,38.37
2017-09-25T07:06:52.706Z,39.40
2017-09-25T07:09:20.950Z,36.97
2017-09-25T07:11:49.238Z,37.27
2017-09-25T07:14:18.302Z,33.37
2017-09-25T07:16:47.394Z,40.60
2017-09-25T07:19:18.223Z,37.10
2017-09-25T07:21:46.931Z,32.23
2017-09-25T07:24:15.887Z,33.33
2017-09-25T07:26:44.179Z,32.90
2017-09-25T07:29:13.819Z,33.57
2017-09-25T07:31:42.039Z,33.97
2017-09-25T07:34:11.098Z,33.67
2017-09-25T07:36:40.159Z,32.60
2017-09-25T07:39:08.504Z,33.17
2017-09-25T07:41:36.813Z,30.60
2017-09-25T07:44:06.442Z,33.67
2017-09-25T07:46:35.075Z,30.83
2017-09-25T07:49:04.729Z,30.23
2017-09-25T07:51:33.659Z,30.43
2017-09-25T07:54:03.766Z,27.03
2017-09-25T07:56:32.688Z,28.73
2017-09-25T07:59:01.375Z,30.20
2017-09-25T08:01:29.707Z,30.70
2017-09-25T08:03:57.998Z,28.60
2017-09-25T08:06:27.432Z,28.50
2017-09-25T08:08:56.594Z,27.63
2017-09-25T08:11:25.642Z,24.00
2017-09-25T08:13:53.937Z,25.03
2017-09-25T08:16:23.948Z,24.53
2017-09-25T08:18:52.879Z,22.40
2017-09-25T08:21:21.176Z,24.60
2017-09-25T08:23:50.667Z,23.40
2017-09-25T08:26:19.739Z,23.90
2017-09-25T08:28:49.170Z,22.23
2017-09-25T08:31:17.532Z,28.70
2017-09-25T08:33:45.826Z,33.27
2017-09-25T08:36:15.475Z,38.10
2017-09-25T08:38:44.087Z,42.23
2017-09-25T08:41:13.726Z,37.20
2017-09-25T08:43:43.044Z,37.13
2017-09-25T08:46:11.370Z,27.90
2017-09-25T08:48:39.659Z,26.93
2017-09-25T08:51:07.951Z,25.57
2017-09-25T08:53:36.696Z,23.50
2017-09-25T08:56:05.742Z,26.87
2017-09-25T08:58:34.055Z,25.30
2017-09-25T09:01:02.435Z,25.20
2017-09-25T09:03:31.130Z,24.13
2017-09-25T09:06:00.919Z,24.90
2017-09-25T09:08:42.596Z,25.50
2017-09-25T09:11:11.279Z,23.77
2017-09-25T09:13:40.914Z,21.80
2017-09-25T09:16:09.899Z,26.20
2017-09-25T09:18:38.195Z,24.43
2017-09-25T09:21:06.884Z,23.07
2017-09-25T09:23:35.238Z,24.60
2017-09-25T09:26:05.047Z,21.03
2017-09-25T09:28:34.699Z,21.00
2017-09-25T09:31:03.311Z,19.50
2017-09-25T09:33:31.609Z,18.67
2017-09-25T09:35:59.903Z,20.37
2017-09-25T09:38:28.537Z,13.80
2017-09-25T09:40:56.818Z,12.50
2017-09-25T09:43:25.884Z,12.97
2017-09-25T09:45:55.016Z,11.73
2017-09-25T09:48:24.447Z,13.23
2017-09-25T09:50:52.739Z,11.77
2017-09-25T09:53:21.075Z,12.93
2017-09-25T09:55:49.363Z,12.80
2017-09-25T09:58:17.656Z,7.67
2017-09-25T10:00:46.748Z,8.57
2017-09-25T10:03:15.039Z,8.80
2017-09-25T10:05:43.332Z,10.67
2017-09-25T10:08:13.030Z,9.53
2017-09-25T10:10:41.189Z,10.73
2017-09-25T10:13:09.471Z,7.70
2017-09-25T10:15:39.311Z,8.27
2017-09-25T10:18:08.955Z,6.40
2017-09-25T10:20:37.507Z,5.23
2017-09-25T10:23:05.840Z,7.07
2017-09-25T10:25:34.116Z,7.10
2017-09-25T10:28:02.396Z,8.33
2017-09-25T10:30:30.712Z,7.90
2017-09-25T10:32:58.992Z,7.77
2017-09-25T10:35:27.278Z,10.67
2017-09-25T10:37:56.364Z,8.40
2017-09-25T10:40:26.004Z,10.33
2017-09-25T10:42:54.572Z,8.70
2017-09-25T10:45:22.910Z,9.40
2017-09-25T10:47:52.695Z,10.53
2017-09-25T10:50:22.333Z,11.37
2017-09-25T10:52:51.416Z,14.20
2017-09-25T10:55:19.703Z,8.73
2017-09-25T10:57:49.128Z,10.40
2017-09-25T11:00:18.847Z,11.40
2017-09-25T11:02:47.396Z,9.80
2017-09-25T11:05:16.471Z,11.40
2017-09-25T11:07:44.815Z,11.80
2017-09-25T11:10:13.876Z,11.93
2017-09-25T11:12:42.565Z,12.50
2017-09-25T11:15:12.282Z,12.97
2017-09-25T11:17:40.856Z,10.10
2017-09-25T11:20:09.151Z,11.63
2017-09-25T11:22:37.499Z,12.50
2017-09-25T11:25:06.548Z,10.87
2017-09-25T11:27:36.343Z,12.60
2017-09-25T11:30:04.677Z,12.60
2017-09-25T11:32:33.356Z,10.27
2017-09-25T11:35:01.643Z,12.37
2017-09-25T11:37:31.327Z,11.47
2017-09-25T11:39:59.487Z,10.03
2017-09-25T11:42:29.274Z,10.67
2017-09-25T11:44:57.604Z,11.40
2017-09-25T11:47:25.879Z,9.47
2017-09-25T11:49:54.167Z,9.20
2017-09-25T11:52:24.218Z,11.23
2017-09-25T11:54:52.374Z,7.93
2017-09-25T11:57:20.656Z,6.20
2017-09-25T11:59:50.124Z,4.87
2017-09-25T12:02:19.764Z,5.20
2017-09-25T12:04:48.314Z,4.40
2017-09-25T12:07:16.655Z,4.60
2017-09-25T12:09:46.443Z,4.47
2017-09-25T12:12:14.727Z,4.10
2017-09-25T12:14:43.207Z,4.90
2017-09-25T12:17:11.482Z,3.33
2017-09-25T12:19:39.768Z,6.00
2017-09-25T12:22:08.115Z,4.27
2017-09-25T12:24:37.161Z,4.03
2017-09-25T12:27:05.447Z,3.60
2017-09-25T12:29:34.541Z,3.43
2017-09-25T12:32:03.967Z,2.87
2017-09-25T12:34:32.255Z,2.87
2017-09-25T12:37:00.619Z,3.50
2017-09-25T12:39:30.419Z,4.13
2017-09-25T12:41:58.705Z,3.57
2017-09-25T12:44:28.379Z,3.53
2017-09-25T12:46:56.534Z,3.20
2017-09-25T12:49:26.318Z,3.17
2017-09-25T12:51:54.658Z,3.83
2017-09-25T12:54:22.961Z,3.30
2017-09-25T12:56:51.243Z,3.70
2017-09-25T12:59:21.659Z,3.00
2017-09-25T13:01:50.700Z,4.83
2017-09-25T13:04:18.996Z,4.30
2017-09-25T13:06:48.088Z,3.30
2017-09-25T13:09:16.367Z,5.23
2017-09-25T13:11:44.657Z,3.67
2017-09-25T13:14:13.767Z,3.90
2017-09-25T13:16:42.044Z,3.83
2017-09-25T13:19:11.683Z,4.03
2017-09-25T13:21:40.651Z,3.30
2017-09-25T13:24:08.941Z,3.70
2017-09-25T13:26:38.566Z,4.50
2017-09-25T13:29:07.928Z,3.60
2017-09-25T13:31:36.211Z,3.27
2017-09-25T13:34:06.008Z,3.30
2017-09-25T13:36:35.095Z,3.47
2017-09-25T13:39:04.543Z,3.33
2017-09-25T13:41:32.828Z,5.57
2017-09-25T13:44:01.152Z,3.40
2017-09-25T13:46:30.200Z,4.30
2017-09-25T13:48:59.828Z,3.70
2017-09-25T13:51:29.464Z,3.47
2017-09-25T13:53:59.259Z,3.30
2017-09-25T13:56:28.936Z,5.00
2017-09-25T14:04:06.572Z,3.00
2017-09-25T14:06:34.931Z,3.43
2017-09-25T14:09:04.039Z,2.23
2017-09-25T14:11:33.173Z,3.10
2017-09-25T14:14:01.932Z,5.10
2017-09-25T14:16:31.615Z,2.50
2017-09-25T14:19:00.558Z,3.57
2017-09-25T14:21:28.888Z,2.60
2017-09-25T14:23:57.616Z,4.00
2017-09-25T14:26:27.611Z,3.60
2017-09-25T14:28:56.719Z,2.47
2017-09-25T14:31:25.048Z,3.50
2017-09-25T14:33:53.437Z,2.20
2017-09-25T14:36:21.774Z,3.50
2017-09-25T14:38:50.116Z,2.83
2017-09-25T14:41:18.491Z,3.07
2017-09-25T14:43:48.334Z,2.90
2017-09-25T14:46:16.667Z,2.70
2017-09-25T14:48:45.808Z,2.70
2017-09-25T14:51:15.496Z,2.80
2017-09-25T14:53:44.467Z,3.33
2017-09-25T14:56:14.226Z,3.80
2017-09-25T14:58:42.433Z,3.90
2017-09-25T15:01:10.763Z,3.33
2017-09-25T15:03:39.150Z,4.70
2017-09-25T15:06:08.828Z,3.77
2017-09-25T15:08:37.032Z,3.90
2017-09-25T15:11:06.760Z,3.30
2017-09-25T15:13:34.975Z,4.00
2017-09-25T15:16:03.324Z,3.43
2017-09-25T15:18:31.695Z,3.03
2017-09-25T15:21:00.020Z,3.67
2017-09-25T15:23:28.342Z,3.60
2017-09-25T15:25:57.491Z,3.77
2017-09-25T15:28:26.587Z,3.17
2017-09-25T15:30:55.675Z,4.00
2017-09-25T15:33:24.832Z,4.67
2017-09-25T15:35:54.537Z,4.10
2017-09-25T15:38:24.297Z,6.70
2017-09-25T15:40:54.374Z,6.10
2017-09-25T15:43:22.587Z,7.57
2017-09-25T15:45:52.298Z,7.93
2017-09-25T15:48:21.295Z,7.50
2017-09-25T15:50:50.401Z,7.73
2017-09-25T15:53:18.930Z,8.50
2017-09-25T15:55:47.270Z,8.37
2017-09-25T15:58:15.607Z,8.70
2017-09-25T16:00:45.895Z,9.97
2017-09-25T16:03:14.115Z,11.27
2017-09-25T16:05:43.960Z,10.03
2017-09-25T16:08:13.698Z,10.77
2017-09-25T16:10:42.307Z,10.87
2017-09-25T16:13:10.643Z,12.00
2017-09-25T16:15:39.756Z,12.00
2017-09-25T16:18:08.425Z,10.83
2017-09-25T16:20:38.110Z,10.90
2017-09-25T16:23:06.322Z,10.10
2017-09-25T16:25:35.830Z,10.90
2017-09-25T16:28:04.175Z,11.93
2017-09-25T16:30:33.282Z,10.40
2017-09-25T16:33:02.423Z,12.07
2017-09-25T16:35:30.759Z,12.07
2017-09-25T16:37:59.791Z,11.50
2017-09-25T16:40:29.339Z,11.43
2017-09-25T16:42:57.675Z,10.63
2017-09-25T16:45:27.379Z,11.40
2017-09-25T16:47:57.010Z,12.13
2017-09-25T16:50:26.363Z,12.17
2017-09-25T16:52:58.620Z,11.40
2017-09-25T16:55:27.358Z,13.63
2017-09-25T16:57:55.760Z,12.53
2017-09-25T17:00:24.099Z,12.57
2017-09-25T17:02:53.577Z,11.93
2017-09-25T17:05:21.991Z,11.80
2017-09-25T17:07:50.352Z,13.40
2017-09-25T17:10:18.691Z,13.57
2017-09-25T17:12:47.107Z,12.40
2017-09-25T17:15:16.221Z,12.67
2017-09-25T17:17:44.586Z,13.00
2017-09-25T17:20:12.983Z,13.17
2017-09-25T17:22:41.334Z,14.00
2017-09-25T17:25:10.624Z,13.30
2017-09-25T17:27:41.047Z,14.63
2017-09-25T17:30:09.650Z,13.83
2017-09-25T17:32:38.750Z,14.83
2017-09-25T17:35:07.135Z,15.10
2017-09-25T17:37:35.474Z,16.63
2017-09-25T17:40:03.829Z,20.03
2017-09-25T17:42:33.383Z,19.57
2017-09-25T17:45:01.723Z,17.17
2017-09-25T17:47:30.056Z,17.50
2017-09-25T17:49:58.475Z,20.57
2017-09-25T17:52:26.815Z,19.60
2017-09-25T17:54:55.914Z,18.33
2017-09-25T17:57:24.711Z,20.60
2017-09-25T17:59:54.550Z,19.40
2017-09-25T18:02:22.899Z,22.40
2017-09-25T18:04:51.277Z,22.50
2017-09-25T18:07:19.616Z,21.30
2017-09-25T18:09:49.466Z,25.33
2017-09-25T18:12:17.848Z,22.90
2017-09-25T18:14:47.535Z,23.10
2017-09-25T18:17:16.144Z,19.50
2017-09-25T18:19:45.561Z,23.57
2017-09-25T18:22:15.252Z,18.57
2017-09-25T18:24:43.863Z,20.93
2017-09-25T18:27:12.258Z,20.43
2017-09-25T18:29:41.974Z,22.30
2017-09-25T18:32:10.187Z,28.87
2017-09-25T18:34:39.714Z,22.07
2017-09-25T18:37:08.419Z,29.33
2017-09-25T18:39:36.759Z,22.53
2017-09-25T18:42:06.287Z,21.13
2017-09-25T18:44:34.627Z,22.40
2017-09-25T18:47:03.491Z,21.63
2017-09-25T18:49:32.639Z,22.13
2017-09-25T18:52:02.347Z,33.50
2017-09-25T18:54:31.704Z,27.10
2017-09-25T18:57:00.858Z,24.60
2017-09-25T18:59:29.199Z,25.23
2017-09-25T19:01:59.052Z,24.60
2017-09-25T19:04:28.211Z,22.93
2017-09-25T19:06:57.914Z,21.53
2017-09-25T19:09:26.146Z,24.00
2017-09-25T19:11:55.678Z,22.57
2017-09-25T19:14:24.035Z,24.23
2017-09-25T19:16:52.770Z,23.57
2017-09-25T19:19:21.925Z,24.40
2017-09-25T19:21:50.306Z,29.40
2017-09-25T19:24:18.642Z,27.13
2017-09-25T19:26:47.031Z,27.53
2017-09-25T19:29:15.372Z,29.17
2017-09-25T19:31:45.231Z,29.70
2017-09-25T19:34:13.632Z,31.50
2017-09-25T19:36:42.371Z,30.17
2017-09-25T19:39:10.709Z,28.87
2017-09-25T19:41:39.096Z,32.70
2017-09-25T19:44:08.936Z,34.10
2017-09-25T19:46:37.276Z,33.23
2017-09-25T19:49:17.091Z,38.40
2017-09-25T19:51:46.216Z,36.13
2017-09-25T19:54:21.000Z,41.93
2017-09-25T19:57:00.031Z,36.20
2017-09-25T19:59:32.134Z,38.97
2017-09-25T20:02:00.475Z,36.97
2017-09-25T20:04:29.207Z,37.33
2017-09-25T20:06:58.370Z,40.30
2017-09-25T20:09:28.059Z,38.00
2017-09-25T20:11:57.639Z,39.93
2017-09-25T20:14:27.246Z,44.03
2017-09-25T20:16:57.953Z,39.50
2017-09-25T20:19:26.303Z,39.63
2017-09-25T20:21:55.060Z,35.90
2017-09-25T20:24:24.541Z,39.97
2017-09-25T20:26:52.890Z,44.30
2017-09-25T20:29:21.440Z,39.27
2017-09-25T20:31:49.786Z,37.50
2017-09-25T20:34:19.281Z,38.47
2017-09-25T20:36:48.159Z,45.50
2017-09-25T20:39:17.639Z,43.90
2017-09-25T20:41:47.346Z,40.93
2017-09-25T20:44:16.004Z,40.90
2017-09-25T20:46:45.692Z,41.50
2017-09-25T20:49:15.303Z,49.73
2017-09-25T20:51:45.251Z,41.00
2017-09-25T20:54:14.937Z,43.77
2017-09-25T20:56:45.926Z,42.60
2017-09-25T20:59:15.758Z,43.43
2017-09-25T21:01:44.506Z,44.93
2017-09-25T21:04:12.851Z,42.63
2017-09-25T21:06:42.743Z,43.73
2017-09-25T21:09:12.431Z,43.63
2017-09-25T21:11:42.030Z,50.00
2017-09-25T21:14:11.795Z,43.10
2017-09-25T21:16:40.896Z,44.23
2017-09-25T21:19:09.270Z,48.07
2017-09-25T21:21:38.425Z,47.97
2017-09-25T21:24:08.275Z,46.00
2017-09-25T21:26:46.569Z,57.97
2017-09-25T21:29:16.268Z,42.73
2017-09-25T21:31:45.891Z,44.43
2017-09-25T21:34:14.542Z,44.10
2017-09-25T21:36:42.891Z,47.27
2017-09-25T21:39:16.866Z,51.00
2017-09-25T21:41:46.571Z,46.80
2017-09-25T21:44:15.555Z,51.93
2017-09-25T21:46:44.347Z,57.33
2017-09-25T21:49:12.694Z,51.13
2017-09-25T21:51:41.035Z,49.33
2017-09-25T21:54:10.932Z,46.73
2017-09-25T21:56:39.278Z,50.33
2017-09-25T21:59:07.622Z,48.97
2017-09-25T22:01:36.017Z,53.47
2017-09-25T22:04:05.123Z,49.87
2017-09-25T22:06:34.822Z,57.03
2017-09-25T22:09:03.847Z,50.83
2017-09-25T22:11:32.194Z,57.43
2017-09-25T22:14:00.543Z,51.60
2017-09-25T22:16:28.922Z,52.80
2017-09-25T22:18:58.039Z,45.03
2017-09-25T22:21:28.794Z,52.67
2017-09-25T22:23:57.203Z,56.07
2017-09-25T22:26:26.315Z,51.13
2017-09-25T22:28:54.660Z,49.03
2017-09-25T22:31:23.042Z,53.37
2017-09-25T22:33:53.455Z,51.47
2017-09-25T22:36:22.564Z,46.07
2017-09-25T22:38:50.963Z,45.30
2017-09-25T22:41:20.065Z,45.23
2017-09-25T22:43:55.345Z,48.83
2017-09-25T22:46:23.698Z,47.23
2017-09-25T22:48:52.038Z,49.57
2017-09-25T22:51:21.791Z,53.07
2017-09-25T22:53:49.999Z,47.83
2017-09-25T22:56:18.365Z,48.70
2017-09-25T22:58:46.772Z,46.03
2017-09-25T23:01:15.878Z,49.07
2017-09-25T23:06:43.342Z,46.87
2017-09-25T23:09:28.798Z,46.30
2017-09-25T23:11:58.270Z,58.70
2017-09-25T23:14:26.615Z,58.40
2017-09-25T23:16:55.374Z,62.33
2017-09-25T23:19:24.489Z,51.93
2017-09-25T23:21:52.843Z,50.27
2017-09-25T23:24:21.228Z,52.23
2017-09-25T23:26:51.074Z,59.57
2017-09-25T23:29:19.410Z,56.93
2017-09-25T23:31:47.799Z,48.40
2017-09-25T23:34:16.158Z,50.40
2017-09-25T23:36:44.508Z,50.07
2017-09-25T23:39:14.406Z,49.43
2017-09-25T23:41:44.097Z,55.87
2017-09-25T23:44:12.706Z,47.70
2017-09-25T23:46:41.373Z,54.13
2017-09-25T23:49:09.718Z,54.47
2017-09-25T23:51:38.050Z,53.43
2017-09-25T23:54:06.429Z,53.70
2017-09-25T23:56:34.766Z,51.67
2017-09-25T23:59:03.122Z,49.03
